Terminal Aerodrome Forecast
Issued by NWS

Home | Current Version | Previous Version | Text Only | Print | Product List | Glossary On
Versions: 1 2 3 4 5 6 7 8 9 10 11 12 13 14 15 16 17 18 19 20 21 22 23 24 25 26 27 28 29 30 31 32 33 34 35 36 37 38 39 40 41 42 43 44
000
FTUS45 KGJT 290309 AAB
TAFTEX
TAF AMD
KTEX 290309Z 2903/2924 30010G22KT 3SM -SN VCSH BKN018 BKN024 OVC035
      TEMPO 2903/2905 1SM -SN BKN008 OVC025
     FM291000 35009KT P6SM VCSH BKN025
     FM291300 32008KT P6SM VCSH BKN070
     FM291700 36008KT P6SM VCSH FEW120=

USA.gov is the U.S. government's official web portal to all federal, state and local government web resources and services.